X  Κλείσε Στοιχεία αεροπορικών μετεωρολογικών δεδομένων METAR     LGTS Thessaloniki Macedonia International Airport
θερμοκρασία
12°C θερμοκρασία
5°C Σημείο δρόσου
63% Υγρασία



Ανεμος
26 KM/H
16 MPH
7 M/S
14 KTS



110°
ANA
Τρέχουσες συνθήκες

Μερικώς συννεφιασμένος Μερικώς συννεφιασμένος
πίεση 1002.92 (hPa) - 29.62 (inHg)
Ορατότητα 6.2 (μίλι) - 10 (km)
Aεροδρόμιο
Κωδικός αεροδρομίου LGTS

Τοποθεσία: Thessaloniki Macedonia International Airport
Απόσταση: 85 (km)

Metar:
LGTS 260450Z 11014KT 9999 FEW025 12/05 Q1003 NOSIG

ώρα: 26-01-2021 06:50 EET